sensor_id;sensor_type;location;lat;lon;timestamp;P1;durP1;ratioP1;P2;durP2;ratioP2
64932;SDS011;51446;53.850;10.662;2022-11-20T00:02:23;9.43;;;6.37;;
64932;SDS011;51446;53.850;10.662;2022-11-20T00:04:49;6.63;;;5.97;;
64932;SDS011;51446;53.850;10.662;2022-11-20T00:07:14;7.97;;;6.30;;
64932;SDS011;51446;53.850;10.662;2022-11-20T00:09:39;7.67;;;5.63;;
64932;SDS011;51446;53.850;10.662;2022-11-20T00:12:04;6.73;;;5.80;;
64932;SDS011;51446;53.850;10.662;2022-11-20T00:14:29;9.00;;;6.23;;
64932;SDS011;51446;53.850;10.662;2022-11-20T00:16:55;7.70;;;6.20;;
64932;SDS011;51446;53.850;10.662;2022-11-20T00:19:20;7.40;;;6.30;;
64932;SDS011;51446;53.850;10.662;2022-11-20T00:21:45;7.07;;;6.37;;
64932;SDS011;51446;53.850;10.662;2022-11-20T00:24:11;8.83;;;6.17;;
64932;SDS011;51446;53.850;10.662;2022-11-20T00:26:36;8.40;;;5.93;;
64932;SDS011;51446;53.850;10.662;2022-11-20T00:29:02;8.38;;;6.32;;
64932;SDS011;51446;53.850;10.662;2022-11-20T00:31:28;8.52;;;5.88;;
64932;SDS011;51446;53.850;10.662;2022-11-20T00:33:54;10.55;;;6.63;;
64932;SDS011;51446;53.850;10.662;2022-11-20T00:36:21;7.82;;;6.30;;
64932;SDS011;51446;53.850;10.662;2022-11-20T00:38:52;9.35;;;6.78;;
64932;SDS011;51446;53.850;10.662;2022-11-20T00:41:18;11.53;;;6.70;;
64932;SDS011;51446;53.850;10.662;2022-11-20T00:43:44;6.88;;;6.18;;
64932;SDS011;51446;53.850;10.662;2022-11-20T00:46:13;8.17;;;6.60;;
64932;SDS011;51446;53.850;10.662;2022-11-20T00:48:43;7.97;;;6.40;;
64932;SDS011;51446;53.850;10.662;2022-11-20T00:51:09;9.07;;;6.80;;
64932;SDS011;51446;53.850;10.662;2022-11-20T00:53:37;8.75;;;7.20;;
64932;SDS011;51446;53.850;10.662;2022-11-20T00:56:03;10.33;;;6.80;;
64932;SDS011;51446;53.850;10.662;2022-11-20T00:58:31;9.73;;;7.32;;
64932;SDS011;51446;53.850;10.662;2022-11-20T01:01:01;9.50;;;7.40;;
64932;SDS011;51446;53.850;10.662;2022-11-20T01:03:30;9.63;;;6.97;;
64932;SDS011;51446;53.850;10.662;2022-11-20T01:06:04;7.80;;;6.93;;
64932;SDS011;51446;53.850;10.662;2022-11-20T01:08:35;11.30;;;7.30;;
64932;SDS011;51446;53.850;10.662;2022-11-20T01:11:02;11.93;;;7.60;;
64932;SDS011;51446;53.850;10.662;2022-11-20T01:13:30;10.23;;;7.43;;
64932;SDS011;51446;53.850;10.662;2022-11-20T01:16:06;9.40;;;7.57;;
64932;SDS011;51446;53.850;10.662;2022-11-20T01:18:36;8.63;;;7.00;;
64932;SDS011;51446;53.850;10.662;2022-11-20T01:21:04;9.07;;;7.18;;
64932;SDS011;51446;53.850;10.662;2022-11-20T01:23:31;10.48;;;8.10;;
64932;SDS011;51446;53.850;10.662;2022-11-20T01:25:59;12.18;;;7.38;;
64932;SDS011;51446;53.850;10.662;2022-11-20T01:28:28;11.05;;;7.35;;
64932;SDS011;51446;53.850;10.662;2022-11-20T01:30:56;9.17;;;7.37;;
64932;SDS011;51446;53.850;10.662;2022-11-20T01:33:22;9.88;;;7.97;;
64932;SDS011;51446;53.850;10.662;2022-11-20T01:35:47;9.77;;;8.23;;
64932;SDS011;51446;53.850;10.662;2022-11-20T01:38:12;11.07;;;8.40;;
64932;SDS011;51446;53.850;10.662;2022-11-20T01:40:37;9.03;;;7.37;;
64932;SDS011;51446;53.850;10.662;2022-11-20T01:43:11;12.53;;;7.93;;
64932;SDS011;51446;53.850;10.662;2022-11-20T01:48:13;10.57;;;7.93;;
64932;SDS011;51446;53.850;10.662;2022-11-20T01:50:39;11.77;;;7.95;;
64932;SDS011;51446;53.850;10.662;2022-11-20T01:53:07;13.85;;;7.70;;
64932;SDS011;51446;53.850;10.662;2022-11-20T01:55:36;11.60;;;7.93;;
64932;SDS011;51446;53.850;10.662;2022-11-20T01:58:06;11.07;;;8.30;;
64932;SDS011;51446;53.850;10.662;2022-11-20T02:00:33;12.43;;;8.05;;
64932;SDS011;51446;53.850;10.662;2022-11-20T02:02:59;9.60;;;7.27;;
64932;SDS011;51446;53.850;10.662;2022-11-20T02:05:32;10.30;;;7.07;;
64932;SDS011;51446;53.850;10.662;2022-11-20T02:08:07;8.32;;;7.10;;
64932;SDS011;51446;53.850;10.662;2022-11-20T02:10:33;8.27;;;6.80;;
64932;SDS011;51446;53.850;10.662;2022-11-20T02:19:28;8.65;;;6.80;;
64932;SDS011;51446;53.850;10.662;2022-11-20T02:22:07;10.23;;;7.05;;
64932;SDS011;51446;53.850;10.662;2022-11-20T02:24:39;10.18;;;7.03;;
64932;SDS011;51446;53.850;10.662;2022-11-20T02:27:09;10.77;;;6.83;;
64932;SDS011;51446;53.850;10.662;2022-11-20T02:29:37;8.95;;;6.85;;
64932;SDS011;51446;53.850;10.662;2022-11-20T02:32:17;9.15;;;6.68;;
64932;SDS011;51446;53.850;10.662;2022-11-20T02:34:44;9.13;;;6.50;;
64932;SDS011;51446;53.850;10.662;2022-11-20T02:37:09;9.73;;;6.77;;
64932;SDS011;51446;53.850;10.662;2022-11-20T02:39:34;10.07;;;7.03;;
64932;SDS011;51446;53.850;10.662;2022-11-20T02:42:00;8.50;;;6.23;;
64932;SDS011;51446;53.850;10.662;2022-11-20T02:44:25;11.50;;;7.18;;
64932;SDS011;51446;53.850;10.662;2022-11-20T02:46:51;8.87;;;6.47;;
64932;SDS011;51446;53.850;10.662;2022-11-20T02:49:16;8.93;;;7.00;;
64932;SDS011;51446;53.850;10.662;2022-11-20T02:51:41;8.93;;;6.90;;
64932;SDS011;51446;53.850;10.662;2022-11-20T02:54:07;9.67;;;6.47;;
64932;SDS011;51446;53.850;10.662;2022-11-20T02:56:32;10.60;;;7.00;;
64932;SDS011;51446;53.850;10.662;2022-11-20T02:58:57;8.60;;;6.70;;
64932;SDS011;51446;53.850;10.662;2022-11-20T03:01:22;8.13;;;6.83;;
64932;SDS011;51446;53.850;10.662;2022-11-20T03:03:48;9.57;;;6.90;;
64932;SDS011;51446;53.850;10.662;2022-11-20T03:06:14;12.13;;;7.27;;
64932;SDS011;51446;53.850;10.662;2022-11-20T03:08:40;11.00;;;7.10;;
64932;SDS011;51446;53.850;10.662;2022-11-20T03:11:06;13.23;;;7.20;;
64932;SDS011;51446;53.850;10.662;2022-11-20T03:13:32;8.98;;;7.55;;
64932;SDS011;51446;53.850;10.662;2022-11-20T03:15:58;9.80;;;7.20;;
64932;SDS011;51446;53.850;10.662;2022-11-20T03:18:29;10.25;;;7.35;;
64932;SDS011;51446;53.850;10.662;2022-11-20T03:20:57;9.47;;;7.37;;
64932;SDS011;51446;53.850;10.662;2022-11-20T03:23:23;9.23;;;6.90;;
64932;SDS011;51446;53.850;10.662;2022-11-20T03:25:49;10.13;;;7.10;;
64932;SDS011;51446;53.850;10.662;2022-11-20T03:28:14;10.87;;;7.63;;
64932;SDS011;51446;53.850;10.662;2022-11-20T03:30:39;10.43;;;7.33;;
64932;SDS011;51446;53.850;10.662;2022-11-20T03:33:04;11.97;;;8.10;;
64932;SDS011;51446;53.850;10.662;2022-11-20T03:35:30;10.37;;;7.77;;
64932;SDS011;51446;53.850;10.662;2022-11-20T03:37:55;9.20;;;7.47;;
64932;SDS011;51446;53.850;10.662;2022-11-20T03:40:22;12.15;;;7.20;;
64932;SDS011;51446;53.850;10.662;2022-11-20T03:42:47;9.20;;;7.60;;
64932;SDS011;51446;53.850;10.662;2022-11-20T03:45:16;8.77;;;7.37;;
64932;SDS011;51446;53.850;10.662;2022-11-20T03:47:42;9.43;;;7.43;;
64932;SDS011;51446;53.850;10.662;2022-11-20T03:50:09;11.57;;;7.75;;
64932;SDS011;51446;53.850;10.662;2022-11-20T03:52:37;11.20;;;7.72;;
64932;SDS011;51446;53.850;10.662;2022-11-20T03:55:02;11.17;;;8.10;;
64932;SDS011;51446;53.850;10.662;2022-11-20T03:57:28;13.73;;;7.30;;
64932;SDS011;51446;53.850;10.662;2022-11-20T03:59:53;9.02;;;7.70;;
64932;SDS011;51446;53.850;10.662;2022-11-20T04:02:19;11.77;;;7.90;;
64932;SDS011;51446;53.850;10.662;2022-11-20T04:04:44;10.17;;;7.83;;
64932;SDS011;51446;53.850;10.662;2022-11-20T04:07:09;9.43;;;7.23;;
64932;SDS011;51446;53.850;10.662;2022-11-20T04:09:34;9.53;;;6.90;;
64932;SDS011;51446;53.850;10.662;2022-11-20T04:12:00;9.83;;;7.50;;
64932;SDS011;51446;53.850;10.662;2022-11-20T04:14:25;9.33;;;7.30;;
64932;SDS011;51446;53.850;10.662;2022-11-20T04:16:50;9.63;;;7.17;;
64932;SDS011;51446;53.850;10.662;2022-11-20T04:19:15;8.83;;;6.97;;
64932;SDS011;51446;53.850;10.662;2022-11-20T04:21:41;8.53;;;6.87;;
64932;SDS011;51446;53.850;10.662;2022-11-20T04:24:08;10.70;;;7.03;;
64932;SDS011;51446;53.850;10.662;2022-11-20T04:26:33;7.93;;;6.33;;
64932;SDS011;51446;53.850;10.662;2022-11-20T04:28:59;10.27;;;7.30;;
64932;SDS011;51446;53.850;10.662;2022-11-20T04:31:30;8.60;;;6.78;;
64932;SDS011;51446;53.850;10.662;2022-11-20T04:34:04;9.13;;;7.20;;
64932;SDS011;51446;53.850;10.662;2022-11-20T04:36:30;12.15;;;7.60;;
64932;SDS011;51446;53.850;10.662;2022-11-20T04:39:00;9.88;;;7.70;;
64932;SDS011;51446;53.850;10.662;2022-11-20T04:41:29;12.45;;;7.88;;
64932;SDS011;51446;53.850;10.662;2022-11-20T04:43:57;9.00;;;7.22;;
64932;SDS011;51446;53.850;10.662;2022-11-20T04:46:27;14.57;;;8.30;;
64932;SDS011;51446;53.850;10.662;2022-11-20T04:48:53;9.23;;;7.05;;
64932;SDS011;51446;53.850;10.662;2022-11-20T04:51:18;10.37;;;7.53;;
64932;SDS011;51446;53.850;10.662;2022-11-20T04:53:44;8.43;;;7.30;;
64932;SDS011;51446;53.850;10.662;2022-11-20T04:56:10;12.37;;;7.80;;
64932;SDS011;51446;53.850;10.662;2022-11-20T04:58:37;14.95;;;7.68;;
64932;SDS011;51446;53.850;10.662;2022-11-20T05:03:37;10.32;;;7.35;;
64932;SDS011;51446;53.850;10.662;2022-11-20T05:06:02;9.23;;;7.47;;
64932;SDS011;51446;53.850;10.662;2022-11-20T05:08:29;10.40;;;7.13;;
64932;SDS011;51446;53.850;10.662;2022-11-20T05:11:08;8.82;;;6.93;;
64932;SDS011;51446;53.850;10.662;2022-11-20T05:13:38;9.55;;;7.07;;
64932;SDS011;51446;53.850;10.662;2022-11-20T05:16:05;8.73;;;6.63;;
64932;SDS011;51446;53.850;10.662;2022-11-20T05:18:35;12.70;;;7.28;;
64932;SDS011;51446;53.850;10.662;2022-11-20T05:21:01;7.82;;;6.78;;
64932;SDS011;51446;53.850;10.662;2022-11-20T05:23:27;10.23;;;6.73;;
64932;SDS011;51446;53.850;10.662;2022-11-20T05:25:54;8.40;;;7.00;;
64932;SDS011;51446;53.850;10.662;2022-11-20T05:28:20;9.65;;;7.00;;
64932;SDS011;51446;53.850;10.662;2022-11-20T05:30:45;7.67;;;6.87;;
64932;SDS011;51446;53.850;10.662;2022-11-20T05:33:11;8.37;;;6.60;;
64932;SDS011;51446;53.850;10.662;2022-11-20T05:35:36;8.53;;;7.30;;
64932;SDS011;51446;53.850;10.662;2022-11-20T05:38:01;10.70;;;7.07;;
64932;SDS011;51446;53.850;10.662;2022-11-20T05:40:27;9.63;;;6.97;;
64932;SDS011;51446;53.850;10.662;2022-11-20T05:42:52;10.05;;;7.30;;
64932;SDS011;51446;53.850;10.662;2022-11-20T05:45:17;8.98;;;7.00;;
64932;SDS011;51446;53.850;10.662;2022-11-20T05:47:42;9.35;;;7.10;;
64932;SDS011;51446;53.850;10.662;2022-11-20T05:50:08;9.23;;;6.57;;
64932;SDS011;51446;53.850;10.662;2022-11-20T05:52:33;8.77;;;6.55;;
64932;SDS011;51446;53.850;10.662;2022-11-20T05:54:58;8.83;;;6.67;;
64932;SDS011;51446;53.850;10.662;2022-11-20T05:57:23;8.30;;;6.73;;
64932;SDS011;51446;53.850;10.662;2022-11-20T05:59:49;9.37;;;6.50;;
64932;SDS011;51446;53.850;10.662;2022-11-20T06:02:15;11.63;;;6.93;;
64932;SDS011;51446;53.850;10.662;2022-11-20T06:04:40;10.43;;;6.73;;
64932;SDS011;51446;53.850;10.662;2022-11-20T06:07:05;11.23;;;7.17;;
64932;SDS011;51446;53.850;10.662;2022-11-20T06:09:31;8.75;;;7.07;;
64932;SDS011;51446;53.850;10.662;2022-11-20T06:11:57;8.20;;;6.32;;
64932;SDS011;51446;53.850;10.662;2022-11-20T06:14:22;8.23;;;6.77;;
64932;SDS011;51446;53.850;10.662;2022-11-20T06:16:47;9.87;;;7.33;;
64932;SDS011;51446;53.850;10.662;2022-11-20T06:19:13;9.93;;;7.07;;
64932;SDS011;51446;53.850;10.662;2022-11-20T06:21:38;11.80;;;7.03;;
64932;SDS011;51446;53.850;10.662;2022-11-20T06:24:04;8.83;;;7.07;;
64932;SDS011;51446;53.850;10.662;2022-11-20T06:26:29;8.77;;;6.13;;
64932;SDS011;51446;53.850;10.662;2022-11-20T06:28:55;10.40;;;6.35;;
64932;SDS011;51446;53.850;10.662;2022-11-20T06:31:22;6.57;;;5.95;;
64932;SDS011;51446;53.850;10.662;2022-11-20T06:33:48;7.75;;;6.05;;
64932;SDS011;51446;53.850;10.662;2022-11-20T06:36:15;8.77;;;6.75;;
64932;SDS011;51446;53.850;10.662;2022-11-20T06:38:41;9.02;;;6.50;;
64932;SDS011;51446;53.850;10.662;2022-11-20T06:41:10;7.83;;;6.30;;
64932;SDS011;51446;53.850;10.662;2022-11-20T06:43:40;8.65;;;6.28;;
64932;SDS011;51446;53.850;10.662;2022-11-20T06:46:06;10.83;;;6.33;;
64932;SDS011;51446;53.850;10.662;2022-11-20T06:48:31;8.82;;;6.75;;
64932;SDS011;51446;53.850;10.662;2022-11-20T06:50:57;7.07;;;5.83;;
64932;SDS011;51446;53.850;10.662;2022-11-20T06:53:22;8.50;;;6.77;;
64932;SDS011;51446;53.850;10.662;2022-11-20T06:55:48;11.32;;;6.45;;
64932;SDS011;51446;53.850;10.662;2022-11-20T06:58:14;8.15;;;6.13;;
64932;SDS011;51446;53.850;10.662;2022-11-20T07:00:40;7.10;;;6.17;;
64932;SDS011;51446;53.850;10.662;2022-11-20T07:03:07;8.13;;;6.32;;
64932;SDS011;51446;53.850;10.662;2022-11-20T07:05:33;7.20;;;6.30;;
64932;SDS011;51446;53.850;10.662;2022-11-20T07:08:00;8.50;;;6.78;;
64932;SDS011;51446;53.850;10.662;2022-11-20T07:10:26;7.70;;;6.35;;
64932;SDS011;51446;53.850;10.662;2022-11-20T07:12:52;8.00;;;6.57;;
64932;SDS011;51446;53.850;10.662;2022-11-20T07:15:19;7.30;;;6.13;;
64932;SDS011;51446;53.850;10.662;2022-11-20T07:17:45;13.02;;;9.52;;
64932;SDS011;51446;53.850;10.662;2022-11-20T07:20:10;7.73;;;6.40;;
64932;SDS011;51446;53.850;10.662;2022-11-20T07:22:36;9.90;;;6.95;;
64932;SDS011;51446;53.850;10.662;2022-11-20T07:25:02;9.63;;;7.00;;
64932;SDS011;51446;53.850;10.662;2022-11-20T07:27:28;9.87;;;6.53;;
64932;SDS011;51446;53.850;10.662;2022-11-20T07:29:53;9.80;;;7.30;;
64932;SDS011;51446;53.850;10.662;2022-11-20T07:32:19;11.27;;;7.47;;
64932;SDS011;51446;53.850;10.662;2022-11-20T07:34:44;9.47;;;7.53;;
64932;SDS011;51446;53.850;10.662;2022-11-20T07:37:09;7.77;;;6.80;;
64932;SDS011;51446;53.850;10.662;2022-11-20T07:39:35;8.43;;;6.73;;
64932;SDS011;51446;53.850;10.662;2022-11-20T07:42:00;8.30;;;6.97;;
64932;SDS011;51446;53.850;10.662;2022-11-20T07:44:25;8.77;;;7.15;;
64932;SDS011;51446;53.850;10.662;2022-11-20T07:46:51;8.02;;;6.68;;
64932;SDS011;51446;53.850;10.662;2022-11-20T07:49:16;7.97;;;6.80;;
64932;SDS011;51446;53.850;10.662;2022-11-20T07:51:41;11.53;;;7.10;;
64932;SDS011;51446;53.850;10.662;2022-11-20T07:54:06;10.00;;;6.63;;
64932;SDS011;51446;53.850;10.662;2022-11-20T07:56:32;8.70;;;6.53;;
64932;SDS011;51446;53.850;10.662;2022-11-20T07:58:57;8.73;;;6.37;;
64932;SDS011;51446;53.850;10.662;2022-11-20T08:01:22;9.37;;;7.13;;
64932;SDS011;51446;53.850;10.662;2022-11-20T08:03:47;7.67;;;6.80;;
64932;SDS011;51446;53.850;10.662;2022-11-20T08:06:13;8.53;;;6.87;;
64932;SDS011;51446;53.850;10.662;2022-11-20T08:08:39;12.10;;;8.07;;
64932;SDS011;51446;53.850;10.662;2022-11-20T08:11:05;8.67;;;7.30;;
64932;SDS011;51446;53.850;10.662;2022-11-20T08:13:49;9.45;;;7.72;;
64932;SDS011;51446;53.850;10.662;2022-11-20T08:16:33;8.25;;;6.65;;
64932;SDS011;51446;53.850;10.662;2022-11-20T08:18:58;7.80;;;6.63;;
64932;SDS011;51446;53.850;10.662;2022-11-20T08:21:24;8.13;;;6.77;;
64932;SDS011;51446;53.850;10.662;2022-11-20T08:23:49;8.20;;;6.93;;
64932;SDS011;51446;53.850;10.662;2022-11-20T08:26:14;8.97;;;6.53;;
64932;SDS011;51446;53.850;10.662;2022-11-20T08:28:39;7.87;;;7.00;;
64932;SDS011;51446;53.850;10.662;2022-11-20T08:31:05;9.93;;;7.40;;
64932;SDS011;51446;53.850;10.662;2022-11-20T08:33:30;9.37;;;7.67;;
64932;SDS011;51446;53.850;10.662;2022-11-20T08:36:01;10.55;;;7.88;;
64932;SDS011;51446;53.850;10.662;2022-11-20T08:38:27;8.70;;;7.60;;
64932;SDS011;51446;53.850;10.662;2022-11-20T08:40:56;9.07;;;8.00;;
64932;SDS011;51446;53.850;10.662;2022-11-20T08:43:41;11.40;;;7.95;;
64932;SDS011;51446;53.850;10.662;2022-11-20T08:46:06;11.07;;;7.13;;
64932;SDS011;51446;53.850;10.662;2022-11-20T08:48:31;10.67;;;6.83;;
64932;SDS011;51446;53.850;10.662;2022-11-20T08:50:57;8.30;;;7.07;;
64932;SDS011;51446;53.850;10.662;2022-11-20T08:53:23;8.03;;;7.23;;
64932;SDS011;51446;53.850;10.662;2022-11-20T08:55:49;8.93;;;6.95;;
64932;SDS011;51446;53.850;10.662;2022-11-20T08:58:14;8.73;;;7.50;;
64932;SDS011;51446;53.850;10.662;2022-11-20T09:00:39;8.02;;;6.53;;
64932;SDS011;51446;53.850;10.662;2022-11-20T09:03:04;8.48;;;7.32;;
64932;SDS011;51446;53.850;10.662;2022-11-20T09:05:30;9.30;;;7.05;;
64932;SDS011;51446;53.850;10.662;2022-11-20T09:07:55;9.00;;;7.53;;
64932;SDS011;51446;53.850;10.662;2022-11-20T09:10:21;11.53;;;7.07;;
64932;SDS011;51446;53.850;10.662;2022-11-20T09:12:48;8.53;;;6.67;;
64932;SDS011;51446;53.850;10.662;2022-11-20T09:15:14;8.70;;;6.80;;
64932;SDS011;51446;53.850;10.662;2022-11-20T09:17:40;7.60;;;6.53;;
64932;SDS011;51446;53.850;10.662;2022-11-20T09:20:05;7.95;;;7.10;;
64932;SDS011;51446;53.850;10.662;2022-11-20T09:22:30;9.40;;;6.55;;
64932;SDS011;51446;53.850;10.662;2022-11-20T09:24:56;7.50;;;6.70;;
64932;SDS011;51446;53.850;10.662;2022-11-20T09:27:21;7.43;;;6.63;;
64932;SDS011;51446;53.850;10.662;2022-11-20T09:29:46;9.27;;;6.53;;
64932;SDS011;51446;53.850;10.662;2022-11-20T09:32:12;8.20;;;6.90;;
64932;SDS011;51446;53.850;10.662;2022-11-20T09:34:37;8.40;;;6.73;;
64932;SDS011;51446;53.850;10.662;2022-11-20T09:37:03;6.18;;;5.25;;
64932;SDS011;51446;53.850;10.662;2022-11-20T09:39:28;6.27;;;4.60;;
64932;SDS011;51446;53.850;10.662;2022-11-20T09:49:50;4.20;;;3.77;;
64932;SDS011;51446;53.850;10.662;2022-11-20T09:52:22;4.20;;;3.80;;
64932;SDS011;51446;53.850;10.662;2022-11-20T09:55:00;4.90;;;4.40;;
64932;SDS011;51446;53.850;10.662;2022-11-20T09:57:33;5.15;;;4.50;;
64932;SDS011;51446;53.850;10.662;2022-11-20T10:00:02;4.75;;;4.25;;
64932;SDS011;51446;53.850;10.662;2022-11-20T10:02:30;5.07;;;4.60;;
64932;SDS011;51446;53.850;10.662;2022-11-20T10:10:46;5.40;;;4.90;;
64932;SDS011;51446;53.850;10.662;2022-11-20T10:26:43;6.38;;;4.78;;
64932;SDS011;51446;53.850;10.662;2022-11-20T10:29:22;5.67;;;5.17;;
64932;SDS011;51446;53.850;10.662;2022-11-20T10:32:00;6.43;;;4.88;;
64932;SDS011;51446;53.850;10.662;2022-11-20T10:34:33;5.95;;;4.82;;
64932;SDS011;51446;53.850;10.662;2022-11-20T10:37:10;5.38;;;4.88;;
64932;SDS011;51446;53.850;10.662;2022-11-20T10:39:51;6.35;;;5.57;;
64932;SDS011;51446;53.850;10.662;2022-11-20T10:42:26;5.30;;;4.57;;
64932;SDS011;51446;53.850;10.662;2022-11-20T10:45:02;6.10;;;4.50;;
64932;SDS011;51446;53.850;10.662;2022-11-20T10:47:40;4.63;;;4.22;;
64932;SDS011;51446;53.850;10.662;2022-11-20T10:50:05;3.93;;;3.63;;
64932;SDS011;51446;53.850;10.662;2022-11-20T10:52:41;4.75;;;3.80;;
64932;SDS011;51446;53.850;10.662;2022-11-20T10:55:36;9.68;;;5.40;;
64932;SDS011;51446;53.850;10.662;2022-11-20T11:01:20;5.40;;;3.67;;
64932;SDS011;51446;53.850;10.662;2022-11-20T11:03:49;3.63;;;3.33;;
64932;SDS011;51446;53.850;10.662;2022-11-20T11:06:32;3.78;;;3.47;;
64932;SDS011;51446;53.850;10.662;2022-11-20T11:09:04;3.88;;;3.58;;
64932;SDS011;51446;53.850;10.662;2022-11-20T11:11:37;4.23;;;3.87;;
64932;SDS011;51446;53.850;10.662;2022-11-20T11:14:07;4.70;;;4.10;;
64932;SDS011;51446;53.850;10.662;2022-11-20T11:16:41;5.70;;;5.10;;
64932;SDS011;51446;53.850;10.662;2022-11-20T11:19:15;4.57;;;4.18;;
64932;SDS011;51446;53.850;10.662;2022-11-20T11:21:51;5.17;;;4.53;;
64932;SDS011;51446;53.850;10.662;2022-11-20T11:24:20;5.00;;;4.30;;
64932;SDS011;51446;53.850;10.662;2022-11-20T11:29:21;4.70;;;4.20;;
64932;SDS011;51446;53.850;10.662;2022-11-20T11:31:46;4.50;;;3.83;;
64932;SDS011;51446;53.850;10.662;2022-11-20T11:34:13;4.77;;;4.27;;
64932;SDS011;51446;53.850;10.662;2022-11-20T11:36:40;4.03;;;3.72;;
64932;SDS011;51446;53.850;10.662;2022-11-20T11:39:08;4.90;;;4.40;;
64932;SDS011;51446;53.850;10.662;2022-11-20T11:41:39;5.53;;;5.03;;
64932;SDS011;51446;53.850;10.662;2022-11-20T11:44:22;6.17;;;5.57;;
64932;SDS011;51446;53.850;10.662;2022-11-20T11:47:11;8.55;;;6.00;;
64932;SDS011;51446;53.850;10.662;2022-11-20T11:49:48;7.05;;;4.70;;
64932;SDS011;51446;53.850;10.662;2022-11-20T11:52:15;9.73;;;4.60;;
64932;SDS011;51446;53.850;10.662;2022-11-20T11:54:58;8.10;;;3.97;;
64932;SDS011;51446;53.850;10.662;2022-11-20T11:57:29;4.93;;;3.97;;
64932;SDS011;51446;53.850;10.662;2022-11-20T12:02:36;4.75;;;4.35;;
64932;SDS011;51446;53.850;10.662;2022-11-20T12:07:43;5.65;;;4.82;;
64932;SDS011;51446;53.850;10.662;2022-11-20T12:10:21;7.70;;;6.00;;
64932;SDS011;51446;53.850;10.662;2022-11-20T12:13:08;21.23;;;7.87;;
64932;SDS011;51446;53.850;10.662;2022-11-20T12:15:44;7.75;;;5.90;;
64932;SDS011;51446;53.850;10.662;2022-11-20T12:18:14;18.90;;;9.00;;
64932;SDS011;51446;53.850;10.662;2022-11-20T12:20:44;5.45;;;4.50;;
64932;SDS011;51446;53.850;10.662;2022-11-20T12:23:18;15.38;;;8.23;;
64932;SDS011;51446;53.850;10.662;2022-11-20T12:25:56;7.23;;;5.17;;
64932;SDS011;51446;53.850;10.662;2022-11-20T12:28:44;5.53;;;3.88;;
64932;SDS011;51446;53.850;10.662;2022-11-20T12:34:16;4.65;;;4.25;;
64932;SDS011;51446;53.850;10.662;2022-11-20T12:37:01;5.28;;;4.78;;
64932;SDS011;51446;53.850;10.662;2022-11-20T12:39:46;4.70;;;4.30;;
64932;SDS011;51446;53.850;10.662;2022-11-20T12:42:23;4.93;;;4.50;;
64932;SDS011;51446;53.850;10.662;2022-11-20T12:45:21;4.13;;;3.83;;
64932;SDS011;51446;53.850;10.662;2022-11-20T12:47:52;4.70;;;4.30;;
64932;SDS011;51446;53.850;10.662;2022-11-20T12:53:55;7.43;;;4.90;;
64932;SDS011;51446;53.850;10.662;2022-11-20T12:56:43;5.82;;;4.15;;
64932;SDS011;51446;53.850;10.662;2022-11-20T13:05:19;4.13;;;3.72;;
64932;SDS011;51446;53.850;10.662;2022-11-20T13:07:52;3.93;;;3.53;;
64932;SDS011;51446;53.850;10.662;2022-11-20T13:12:55;4.70;;;4.20;;
64932;SDS011;51446;53.850;10.662;2022-11-20T13:15:47;4.30;;;3.90;;
64932;SDS011;51446;53.850;10.662;2022-11-20T13:18:26;4.60;;;4.18;;
64932;SDS011;51446;53.850;10.662;2022-11-20T13:20:53;5.67;;;4.87;;
64932;SDS011;51446;53.850;10.662;2022-11-20T13:23:25;5.17;;;4.53;;
64932;SDS011;51446;53.850;10.662;2022-11-20T13:26:02;13.27;;;8.00;;
64932;SDS011;51446;53.850;10.662;2022-11-20T13:28:29;5.38;;;4.88;;
64932;SDS011;51446;53.850;10.662;2022-11-20T13:30:55;4.73;;;4.33;;
64932;SDS011;51446;53.850;10.662;2022-11-20T13:36:19;7.25;;;6.40;;
64932;SDS011;51446;53.850;10.662;2022-11-20T13:38:47;6.10;;;5.50;;
64932;SDS011;51446;53.850;10.662;2022-11-20T13:41:24;5.67;;;4.73;;
64932;SDS011;51446;53.850;10.662;2022-11-20T13:43:58;5.43;;;4.93;;
64932;SDS011;51446;53.850;10.662;2022-11-20T13:47:03;5.22;;;4.72;;
64932;SDS011;51446;53.850;10.662;2022-11-20T13:49:29;4.70;;;4.30;;
64932;SDS011;51446;53.850;10.662;2022-11-20T14:00:15;4.97;;;4.50;;
64932;SDS011;51446;53.850;10.662;2022-11-20T14:05:23;6.85;;;4.95;;
64932;SDS011;51446;53.850;10.662;2022-11-20T14:07:49;5.40;;;4.87;;
64932;SDS011;51446;53.850;10.662;2022-11-20T14:10:34;5.07;;;4.57;;
64932;SDS011;51446;53.850;10.662;2022-11-20T14:13:09;6.38;;;5.53;;
64932;SDS011;51446;53.850;10.662;2022-11-20T14:15:36;10.43;;;8.43;;
64932;SDS011;51446;53.850;10.662;2022-11-20T14:18:11;7.47;;;6.30;;
64932;SDS011;51446;53.850;10.662;2022-11-20T14:20:45;6.00;;;4.80;;
64932;SDS011;51446;53.850;10.662;2022-11-20T14:23:10;6.53;;;5.60;;
64932;SDS011;51446;53.850;10.662;2022-11-20T14:25:36;6.30;;;5.70;;
64932;SDS011;51446;53.850;10.662;2022-11-20T14:28:02;6.32;;;5.53;;
64932;SDS011;51446;53.850;10.662;2022-11-20T14:30:38;7.60;;;6.50;;
64932;SDS011;51446;53.850;10.662;2022-11-20T14:33:09;6.38;;;5.78;;
64932;SDS011;51446;53.850;10.662;2022-11-20T14:35:37;5.72;;;5.20;;
64932;SDS011;51446;53.850;10.662;2022-11-20T14:38:09;8.65;;;6.43;;
64932;SDS011;51446;53.850;10.662;2022-11-20T14:40:38;7.32;;;5.57;;
64932;SDS011;51446;53.850;10.662;2022-11-20T14:43:16;10.17;;;5.80;;
64932;SDS011;51446;53.850;10.662;2022-11-20T14:45:46;6.00;;;5.35;;
64932;SDS011;51446;53.850;10.662;2022-11-20T14:48:17;12.32;;;9.15;;
64932;SDS011;51446;53.850;10.662;2022-11-20T14:50:43;7.75;;;6.85;;
64932;SDS011;51446;53.850;10.662;2022-11-20T14:53:09;12.20;;;7.70;;
64932;SDS011;51446;53.850;10.662;2022-11-20T14:55:36;29.37;;;17.77;;
64932;SDS011;51446;53.850;10.662;2022-11-20T14:58:04;25.43;;;15.30;;
64932;SDS011;51446;53.850;10.662;2022-11-20T15:00:31;13.50;;;9.73;;
64932;SDS011;51446;53.850;10.662;2022-11-20T15:02:57;16.95;;;10.32;;
64932;SDS011;51446;53.850;10.662;2022-11-20T15:08:10;15.23;;;9.48;;
64932;SDS011;51446;53.850;10.662;2022-11-20T15:10:37;14.38;;;9.65;;
64932;SDS011;51446;53.850;10.662;2022-11-20T15:13:04;10.43;;;8.73;;
64932;SDS011;51446;53.850;10.662;2022-11-20T15:18:13;10.67;;;8.20;;
64932;SDS011;51446;53.850;10.662;2022-11-20T15:20:41;9.82;;;7.50;;
64932;SDS011;51446;53.850;10.662;2022-11-20T15:23:16;10.07;;;7.63;;
64932;SDS011;51446;53.850;10.662;2022-11-20T15:25:43;9.68;;;7.80;;
64932;SDS011;51446;53.850;10.662;2022-11-20T15:28:16;11.02;;;7.10;;
64932;SDS011;51446;53.850;10.662;2022-11-20T15:30:47;9.37;;;6.90;;
64932;SDS011;51446;53.850;10.662;2022-11-20T15:33:14;7.85;;;6.88;;
64932;SDS011;51446;53.850;10.662;2022-11-20T15:35:40;13.30;;;8.55;;
64932;SDS011;51446;53.850;10.662;2022-11-20T15:38:06;14.60;;;8.32;;
64932;SDS011;51446;53.850;10.662;2022-11-20T15:40:31;16.35;;;8.65;;
64932;SDS011;51446;53.850;10.662;2022-11-20T15:42:57;14.87;;;9.03;;
64932;SDS011;51446;53.850;10.662;2022-11-20T15:45:29;20.13;;;9.80;;
64932;SDS011;51446;53.850;10.662;2022-11-20T15:47:59;11.80;;;7.95;;
64932;SDS011;51446;53.850;10.662;2022-11-20T15:50:29;15.90;;;10.15;;
64932;SDS011;51446;53.850;10.662;2022-11-20T15:53:01;15.00;;;9.65;;
64932;SDS011;51446;53.850;10.662;2022-11-20T15:55:26;13.75;;;8.45;;
64932;SDS011;51446;53.850;10.662;2022-11-20T15:57:52;8.37;;;7.13;;
64932;SDS011;51446;53.850;10.662;2022-11-20T16:00:17;11.57;;;7.43;;
64932;SDS011;51446;53.850;10.662;2022-11-20T16:02:42;12.20;;;8.67;;
64932;SDS011;51446;53.850;10.662;2022-11-20T16:05:11;13.00;;;8.87;;